createdAt,value
2022-09-11T00:01:48.326Z,77.09
2022-09-11T00:04:16.540Z,77.17
2022-09-11T00:06:45.104Z,77.12
2022-09-11T00:09:14.005Z,77.16
2022-09-11T00:11:43.586Z,76.98
2022-09-11T00:14:14.084Z,76.90
2022-09-11T00:16:47.190Z,76.89
2022-09-11T00:19:19.343Z,76.74
2022-09-11T00:21:49.909Z,76.72
2022-09-11T00:24:18.225Z,76.66
2022-09-11T00:26:47.501Z,76.69
2022-09-11T00:29:15.827Z,76.67
2022-09-11T00:31:44.201Z,76.64
2022-09-11T00:34:12.479Z,76.56
2022-09-11T00:36:44.316Z,76.60
2022-09-11T00:39:14.379Z,76.63
2022-09-11T00:41:45.072Z,76.69
2022-09-11T00:44:16.898Z,76.67
2022-09-11T00:46:55.581Z,76.70
2022-09-11T00:49:46.920Z,76.74
2022-09-11T00:52:29.148Z,76.76
2022-09-11T00:55:07.601Z,76.62
2022-09-11T00:57:46.947Z,76.55
2022-09-11T01:00:15.741Z,76.62
2022-09-11T01:02:48.351Z,76.61
2022-09-11T01:05:18.467Z,76.67
2022-09-11T01:07:47.726Z,76.58
2022-09-11T01:10:16.123Z,76.56
2022-09-11T01:13:13.164Z,76.66
2022-09-11T01:15:49.918Z,76.55
2022-09-11T01:18:31.720Z,76.55
2022-09-11T01:21:40.471Z,76.63
2022-09-11T01:24:34.246Z,76.76
2022-09-11T01:27:23.947Z,76.99
2022-09-11T01:30:01.419Z,76.96
2022-09-11T01:33:03.269Z,77.21
2022-09-11T01:36:10.681Z,77.15
2022-09-11T01:38:58.708Z,77.41
2022-09-11T01:41:50.860Z,77.60
2022-09-11T01:44:26.515Z,77.67
2022-09-11T01:46:55.007Z,78.06
2022-09-11T01:49:32.075Z,78.05
2022-09-11T01:52:06.261Z,78.07
2022-09-11T01:54:42.810Z,78.14
2022-09-11T01:57:46.559Z,78.22
2022-09-11T02:00:15.575Z,78.24
2022-09-11T02:03:09.404Z,78.48
2022-09-11T02:05:53.208Z,78.63
2022-09-11T02:08:51.264Z,78.57
2022-09-11T02:11:22.429Z,78.74
2022-09-11T02:14:17.859Z,78.77
2022-09-11T02:16:52.902Z,78.86
2022-09-11T02:19:27.693Z,79.02
2022-09-11T02:21:58.075Z,79.20
2022-09-11T02:24:27.788Z,79.37
2022-09-11T02:27:03.056Z,79.56
2022-09-11T02:29:32.978Z,79.54
2022-09-11T02:32:03.726Z,79.97
2022-09-11T02:34:36.963Z,79.92
2022-09-11T02:37:21.337Z,79.81
2022-09-11T02:40:07.546Z,79.87
2022-09-11T02:42:54.689Z,79.79
2022-09-11T02:46:23.035Z,79.97
2022-09-11T02:49:26.611Z,80.28
2022-09-11T02:52:04.755Z,80.21
2022-09-11T02:54:54.284Z,80.37
2022-09-11T02:57:38.198Z,80.46
2022-09-11T03:00:09.243Z,80.48
2022-09-11T03:02:43.215Z,80.56
2022-09-11T03:05:12.127Z,80.50
2022-09-11T03:07:41.768Z,80.49
2022-09-11T03:10:11.633Z,80.24
2022-09-11T03:12:40.153Z,80.35
2022-09-11T03:15:12.029Z,80.18
2022-09-11T03:17:40.459Z,80.15
2022-09-11T03:20:08.775Z,80.16
2022-09-11T03:22:37.055Z,80.09
2022-09-11T03:25:06.704Z,80.03
2022-09-11T03:27:39.495Z,80.06
2022-09-11T03:30:10.062Z,79.99
2022-09-11T03:32:38.195Z,79.90
2022-09-11T03:35:06.554Z,79.94
2022-09-11T03:37:34.807Z,79.83
2022-09-11T03:40:04.809Z,79.81
2022-09-11T03:42:33.557Z,79.75
2022-09-11T03:45:01.777Z,79.73
2022-09-11T03:47:30.463Z,79.78
2022-09-11T03:49:58.811Z,79.77
2022-09-11T03:52:27.019Z,79.59
2022-09-11T03:54:55.211Z,79.59
2022-09-11T03:57:23.769Z,79.55
2022-09-11T03:59:52.061Z,79.52
2022-09-11T04:02:20.255Z,79.48
2022-09-11T04:04:48.530Z,79.50
2022-09-11T04:07:17.055Z,79.49
2022-09-11T04:09:46.659Z,79.28
2022-09-11T04:12:14.877Z,79.24
2022-09-11T04:14:43.036Z,79.22
2022-09-11T04:17:13.172Z,79.16
2022-09-11T04:19:41.345Z,79.10
2022-09-11T04:22:09.568Z,79.14
2022-09-11T04:24:40.175Z,79.02
2022-09-11T04:27:08.265Z,78.86
2022-09-11T04:29:36.387Z,78.92
2022-09-11T04:32:04.984Z,78.82
2022-09-11T04:34:35.198Z,78.86
2022-09-11T04:37:04.321Z,78.79
2022-09-11T04:39:34.165Z,78.76
2022-09-11T04:42:04.409Z,78.74
2022-09-11T04:44:32.677Z,78.88
2022-09-11T04:47:01.119Z,78.86
2022-09-11T04:49:29.431Z,78.92
2022-09-11T04:52:02.961Z,78.97
2022-09-11T04:54:31.245Z,78.88
2022-09-11T04:57:01.955Z,78.77
2022-09-11T04:59:30.637Z,78.64
2022-09-11T05:02:05.812Z,78.47
2022-09-11T05:04:36.009Z,78.33
2022-09-11T05:07:04.348Z,78.29
2022-09-11T05:09:32.501Z,78.14
2022-09-11T05:12:02.247Z,77.82
2022-09-11T05:14:32.833Z,77.63
2022-09-11T05:17:02.904Z,77.01
2022-09-11T05:19:31.683Z,76.72
2022-09-11T05:22:00.184Z,76.41
2022-09-11T05:24:29.710Z,75.94
2022-09-11T05:27:01.570Z,75.62
2022-09-11T05:29:32.722Z,75.60
2022-09-11T05:32:08.203Z,75.51
2022-09-11T05:34:36.339Z,75.12
2022-09-11T05:37:05.520Z,74.66
2022-09-11T05:39:38.001Z,74.57
2022-09-11T05:42:06.969Z,74.56
2022-09-11T05:44:37.062Z,74.64
2022-09-11T05:47:05.933Z,74.19
2022-09-11T05:49:34.055Z,74.03
2022-09-11T05:52:03.046Z,73.75
2022-09-11T05:54:32.460Z,73.60
2022-09-11T05:57:06.907Z,73.12
2022-09-11T05:59:36.715Z,73.20
2022-09-11T06:02:05.043Z,72.70
2022-09-11T06:04:43.067Z,72.70
2022-09-11T06:07:11.221Z,72.73
2022-09-11T06:09:41.224Z,72.12
2022-09-11T06:12:12.530Z,71.44
2022-09-11T06:14:44.430Z,71.26
2022-09-11T06:17:12.705Z,71.13
2022-09-11T06:19:40.891Z,70.86
2022-09-11T06:22:09.096Z,70.95
2022-09-11T06:24:43.136Z,70.69
2022-09-11T06:27:11.527Z,70.64
2022-09-11T06:29:45.036Z,69.88
2022-09-11T06:32:13.711Z,69.74
2022-09-11T06:34:41.991Z,69.73
2022-09-11T06:37:13.647Z,69.72
2022-09-11T06:39:42.244Z,69.71
2022-09-11T06:42:11.693Z,69.51
2022-09-11T06:44:42.185Z,69.18
2022-09-11T06:47:11.183Z,68.85
2022-09-11T06:49:39.317Z,68.85
2022-09-11T06:52:25.809Z,68.67
2022-09-11T06:55:04.736Z,68.61
2022-09-11T06:57:33.005Z,68.08
2022-09-11T07:00:01.121Z,67.80
2022-09-11T07:02:32.806Z,67.27
2022-09-11T07:05:01.713Z,67.04
2022-09-11T07:07:30.236Z,66.72
2022-09-11T07:10:00.362Z,66.70
2022-09-11T07:12:28.560Z,66.12
2022-09-11T07:14:57.186Z,65.69
2022-09-11T07:17:25.301Z,65.61
2022-09-11T07:19:53.906Z,65.37
2022-09-11T07:22:22.233Z,64.81
2022-09-11T07:24:52.557Z,64.08
2022-09-11T07:27:21.958Z,63.72
2022-09-11T07:29:50.088Z,63.23
2022-09-11T07:32:18.284Z,62.96
2022-09-11T07:34:47.654Z,62.39
2022-09-11T07:37:16.135Z,62.10
2022-09-11T07:39:44.323Z,61.97
2022-09-11T07:42:26.929Z,62.14
2022-09-11T07:44:55.772Z,62.02
2022-09-11T07:47:24.044Z,61.31
2022-09-11T07:49:52.976Z,60.13
2022-09-11T07:52:21.132Z,59.14
2022-09-11T07:54:58.132Z,59.52
2022-09-11T07:57:31.226Z,59.08
2022-09-11T08:00:00.448Z,58.90
2022-09-11T08:02:31.389Z,58.71
2022-09-11T08:05:00.254Z,58.63
2022-09-11T08:07:28.672Z,58.72
2022-09-11T08:10:23.335Z,57.22
2022-09-11T08:12:47.727Z,57.47
2022-09-11T08:15:15.855Z,57.54
2022-09-11T08:17:44.650Z,55.77
2022-09-11T08:20:13.672Z,55.62
2022-09-11T08:22:42.147Z,56.30
2022-09-11T08:25:10.540Z,56.35
2022-09-11T08:27:38.736Z,56.19
2022-09-11T08:30:08.647Z,56.70
2022-09-11T08:32:37.031Z,56.51
2022-09-11T08:35:06.134Z,56.16
2022-09-11T08:37:34.392Z,56.38
2022-09-11T08:40:02.839Z,57.68
2022-09-11T08:42:31.887Z,58.21
2022-09-11T08:45:03.200Z,58.50
2022-09-11T08:47:39.794Z,58.70
2022-09-11T08:50:24.475Z,58.62
2022-09-11T08:52:54.853Z,58.44
2022-09-11T08:55:41.195Z,57.70
2022-09-11T08:58:19.410Z,57.35
2022-09-11T09:01:03.029Z,57.07
2022-09-11T09:04:06.369Z,57.11
2022-09-11T09:06:40.619Z,57.29
2022-09-11T09:09:40.799Z,56.12
2022-09-11T09:12:27.494Z,56.78
2022-09-11T09:15:01.796Z,56.56
2022-09-11T09:17:42.289Z,56.93
2022-09-11T09:20:23.203Z,56.77
2022-09-11T09:23:21.772Z,56.59
2022-09-11T09:25:54.335Z,56.49
2022-09-11T09:28:39.703Z,56.01
2022-09-11T09:31:11.309Z,55.98
2022-09-11T09:34:02.033Z,56.09
2022-09-11T09:36:56.347Z,56.05
2022-09-11T09:39:25.762Z,56.00
2022-09-11T09:42:05.289Z,55.74
2022-09-11T09:44:51.276Z,55.83
2022-09-11T09:47:19.467Z,54.99
2022-09-11T09:49:48.159Z,54.60
2022-09-11T09:52:26.564Z,54.70
2022-09-11T09:55:06.171Z,54.32
2022-09-11T09:57:40.075Z,53.98
2022-09-11T10:00:11.826Z,53.57
2022-09-11T10:02:58.126Z,53.88
2022-09-11T10:05:42.742Z,53.80
2022-09-11T10:08:31.423Z,53.56
2022-09-11T10:11:09.185Z,53.27
2022-09-11T10:13:42.569Z,53.41
2022-09-11T10:16:25.776Z,50.69
2022-09-11T10:18:56.351Z,49.66
2022-09-11T10:21:33.487Z,49.94
2022-09-11T10:24:17.392Z,50.67
2022-09-11T10:26:50.837Z,50.49
2022-09-11T10:29:30.262Z,49.38
2022-09-11T10:32:04.428Z,47.84
2022-09-11T10:34:39.194Z,48.13
2022-09-11T10:37:23.799Z,49.02
2022-09-11T10:39:54.196Z,47.46
2022-09-11T10:42:30.484Z,47.71
2022-09-11T10:45:12.403Z,48.24
2022-09-11T10:47:41.018Z,48.23
2022-09-11T10:50:18.004Z,48.36
2022-09-11T10:52:58.112Z,47.51
2022-09-11T10:55:36.446Z,47.55
2022-09-11T10:58:19.436Z,47.91
2022-09-11T11:00:49.445Z,47.71
2022-09-11T11:03:26.248Z,47.44
2022-09-11T11:06:32.680Z,47.42
2022-09-11T11:09:31.681Z,48.04
2022-09-11T11:12:33.094Z,48.16
2022-09-11T11:15:19.855Z,47.92
2022-09-11T11:18:18.478Z,47.82
2022-09-11T11:21:53.808Z,46.91
2022-09-11T11:24:40.830Z,47.08
2022-09-11T11:27:27.715Z,47.22
2022-09-11T11:30:28.185Z,47.87
2022-09-11T11:33:24.222Z,47.27
2022-09-11T11:36:28.932Z,45.85
2022-09-11T11:39:07.154Z,46.25
2022-09-11T11:41:45.435Z,45.75
2022-09-11T11:44:41.693Z,46.27
2022-09-11T11:47:11.773Z,46.47
2022-09-11T11:50:07.001Z,46.36
2022-09-11T11:52:57.261Z,46.56
2022-09-11T11:55:32.741Z,46.60
2022-09-11T11:58:26.486Z,45.66
2022-09-11T12:01:01.937Z,46.37
2022-09-11T12:04:10.265Z,45.62
2022-09-11T12:06:38.645Z,44.93
2022-09-11T12:09:10.836Z,44.79
2022-09-11T12:11:39.262Z,45.01
2022-09-11T12:14:08.067Z,45.73
2022-09-11T12:16:36.590Z,45.36
2022-09-11T12:19:20.979Z,44.30
2022-09-11T12:21:55.083Z,44.25
2022-09-11T12:24:58.911Z,44.36
2022-09-11T12:27:34.681Z,44.57
2022-09-11T12:30:30.851Z,44.37
2022-09-11T12:33:02.476Z,44.58
2022-09-11T12:35:52.868Z,45.04
2022-09-11T12:38:40.950Z,45.43
2022-09-11T12:41:30.844Z,44.98
2022-09-11T12:43:59.717Z,45.42
2022-09-11T12:46:30.776Z,45.60
2022-09-11T12:49:21.613Z,45.35
2022-09-11T12:51:58.348Z,45.40
2022-09-11T12:54:42.600Z,45.61
2022-09-11T12:57:43.250Z,45.67
2022-09-11T13:00:28.332Z,45.83
2022-09-11T13:02:58.016Z,45.86
2022-09-11T13:05:38.563Z,45.48
2022-09-11T13:08:24.136Z,45.65
2022-09-11T13:10:52.433Z,44.63
2022-09-11T13:13:37.472Z,44.68
2022-09-11T13:16:26.611Z,44.31
2022-09-11T13:19:10.289Z,44.91
2022-09-11T13:21:41.864Z,44.06
2022-09-11T13:24:31.536Z,44.06
2022-09-11T13:27:18.933Z,44.46
2022-09-11T13:29:48.706Z,44.55
2022-09-11T13:32:18.925Z,44.68
2022-09-11T13:35:01.961Z,44.73
2022-09-11T13:37:39.821Z,44.82
2022-09-11T13:40:19.097Z,44.44
2022-09-11T13:42:49.016Z,44.36
2022-09-11T13:45:22.318Z,44.44
2022-09-11T13:47:51.792Z,44.38
2022-09-11T13:50:23.505Z,44.37
2022-09-11T13:52:54.223Z,45.21
2022-09-11T13:55:27.338Z,45.21
2022-09-11T13:58:03.796Z,45.49
2022-09-11T14:00:47.209Z,44.78
2022-09-11T14:03:20.216Z,44.79
2022-09-11T14:05:59.214Z,44.56
2022-09-11T14:08:40.474Z,44.85
2022-09-11T14:11:16.176Z,45.09
2022-09-11T14:13:56.658Z,45.25
2022-09-11T14:16:32.059Z,45.40
2022-09-11T14:19:13.204Z,45.78
2022-09-11T14:21:46.580Z,45.77
2022-09-11T14:24:32.808Z,46.17
2022-09-11T14:27:04.491Z,46.14
2022-09-11T14:29:37.520Z,46.07
2022-09-11T14:32:39.099Z,46.00
2022-09-11T14:35:10.572Z,45.96
2022-09-11T14:37:45.931Z,45.93
2022-09-11T14:40:19.427Z,45.86
2022-09-11T14:42:48.623Z,45.81
2022-09-11T14:45:24.513Z,45.65
2022-09-11T14:47:53.581Z,45.64
2022-09-11T14:50:22.746Z,45.79
2022-09-11T14:52:51.738Z,46.23
2022-09-11T14:55:20.536Z,46.17
2022-09-11T14:57:48.837Z,46.54
2022-09-11T15:00:19.349Z,46.99
2022-09-11T15:02:47.913Z,46.99
2022-09-11T15:05:19.820Z,47.03
2022-09-11T15:07:49.201Z,47.23
2022-09-11T15:10:17.310Z,47.00
2022-09-11T15:12:45.408Z,46.61
2022-09-11T15:15:16.085Z,46.79
2022-09-11T15:17:44.304Z,46.76
2022-09-11T15:20:12.431Z,46.90
2022-09-11T15:22:40.533Z,47.20
2022-09-11T15:25:08.752Z,47.37
2022-09-11T15:27:37.032Z,47.38
2022-09-11T15:30:06.172Z,47.70
2022-09-11T15:32:34.321Z,47.59
2022-09-11T15:35:05.024Z,47.73
2022-09-11T15:37:33.899Z,47.98
2022-09-11T15:40:02.123Z,48.21
2022-09-11T15:42:30.980Z,48.37
2022-09-11T15:44:59.070Z,48.33
2022-09-11T15:47:29.416Z,48.61
2022-09-11T15:49:58.587Z,48.84
2022-09-11T15:52:27.389Z,48.99
2022-09-11T15:54:55.501Z,49.11
2022-09-11T15:57:25.573Z,49.32
2022-09-11T15:59:53.677Z,49.42
2022-09-11T16:02:23.928Z,49.49
2022-09-11T16:04:53.929Z,49.64
2022-09-11T16:07:22.492Z,49.72
2022-09-11T16:09:51.399Z,49.75
2022-09-11T16:12:19.528Z,49.82
2022-09-11T16:14:48.220Z,49.92
2022-09-11T16:17:20.615Z,49.96
2022-09-11T16:19:48.746Z,50.08
2022-09-11T16:22:16.840Z,50.23
2022-09-11T16:24:45.097Z,50.39
2022-09-11T16:27:13.206Z,50.44
2022-09-11T16:30:16.042Z,50.73
2022-09-11T16:32:29.779Z,50.89
2022-09-11T16:34:59.535Z,50.99
2022-09-11T16:37:28.853Z,51.23
2022-09-11T16:39:56.993Z,51.46
2022-09-11T16:42:26.368Z,51.68
2022-09-11T16:44:54.653Z,51.87
2022-09-11T16:47:24.332Z,52.06
2022-09-11T16:50:08.918Z,52.25
2022-09-11T16:52:39.219Z,52.57
2022-09-11T16:55:09.968Z,52.81
2022-09-11T16:57:39.890Z,53.03
2022-09-11T17:00:10.383Z,53.16
2022-09-11T17:02:40.436Z,53.52
2022-09-11T17:05:09.708Z,53.60
2022-09-11T17:07:38.491Z,53.94
2022-09-11T17:10:07.474Z,54.23
2022-09-11T17:12:35.571Z,54.48
2022-09-11T17:15:04.599Z,54.58
2022-09-11T17:17:34.868Z,54.85
2022-09-11T17:20:03.161Z,54.95
2022-09-11T17:22:31.272Z,55.42
2022-09-11T17:24:59.400Z,55.44
2022-09-11T17:27:27.533Z,55.76
2022-09-11T17:29:55.895Z,55.78
2022-09-11T17:32:28.559Z,55.83
2022-09-11T17:34:58.714Z,56.06
2022-09-11T17:37:28.373Z,56.18
2022-09-11T17:39:57.986Z,56.44
2022-09-11T17:42:28.806Z,56.57
2022-09-11T17:44:56.920Z,56.85
2022-09-11T17:47:30.561Z,56.91
2022-09-11T17:50:01.542Z,57.07
2022-09-11T17:52:32.137Z,57.30
2022-09-11T17:55:00.319Z,57.66
2022-09-11T17:57:28.528Z,57.68
2022-09-11T17:59:56.704Z,57.91
2022-09-11T18:02:26.207Z,58.15
2022-09-11T18:04:54.333Z,58.29
2022-09-11T18:07:22.485Z,58.45
2022-09-11T18:09:55.610Z,58.73
2022-09-11T18:12:26.642Z,58.81
2022-09-11T18:14:56.987Z,58.93
2022-09-11T18:17:25.189Z,59.02
2022-09-11T18:19:53.327Z,59.27
2022-09-11T18:22:22.531Z,59.38
2022-09-11T18:24:51.021Z,59.37
2022-09-11T18:27:19.882Z,59.59
2022-09-11T18:29:50.088Z,59.82
2022-09-11T18:32:19.945Z,59.92
2022-09-11T18:34:48.645Z,60.35
2022-09-11T18:37:17.507Z,60.43
2022-09-11T18:39:46.867Z,60.09
2022-09-11T18:42:15.046Z,60.24
2022-09-11T18:44:43.185Z,60.46
2022-09-11T18:47:11.471Z,60.56
2022-09-11T18:49:39.631Z,60.59
2022-09-11T18:52:08.811Z,60.71
2022-09-11T18:54:37.427Z,60.67
2022-09-11T18:57:05.676Z,60.73
2022-09-11T18:59:33.798Z,61.02
2022-09-11T19:02:02.297Z,61.08
2022-09-11T19:04:30.618Z,61.28
2022-09-11T19:07:00.289Z,61.43
2022-09-11T19:09:29.435Z,61.41
2022-09-11T19:12:00.229Z,61.41
2022-09-11T19:14:28.754Z,61.36
2022-09-11T19:16:56.917Z,61.40
2022-09-11T19:19:25.955Z,61.48
2022-09-11T19:21:54.045Z,61.62
2022-09-11T19:24:23.710Z,61.83
2022-09-11T19:26:52.900Z,61.84
2022-09-11T19:29:22.716Z,62.10
2022-09-11T19:31:52.819Z,62.45
2022-09-11T19:34:23.964Z,62.72
2022-09-11T19:36:53.040Z,62.81
2022-09-11T19:39:21.931Z,62.92
2022-09-11T19:41:50.345Z,63.20
2022-09-11T19:44:20.038Z,63.38
2022-09-11T19:46:53.440Z,63.63
2022-09-11T19:49:21.804Z,63.47
2022-09-11T19:51:53.194Z,64.14
2022-09-11T19:54:22.999Z,64.18
2022-09-11T19:56:51.450Z,64.30
2022-09-11T19:59:19.909Z,64.67
2022-09-11T20:01:48.339Z,64.93
2022-09-11T20:04:17.729Z,65.25
2022-09-11T20:09:30.361Z,66.16
2022-09-11T20:12:01.483Z,65.91
2022-09-11T20:14:31.138Z,65.82
2022-09-11T20:17:01.036Z,66.00
2022-09-11T20:19:29.984Z,65.96
2022-09-11T20:21:58.153Z,66.21
2022-09-11T20:24:26.418Z,66.11
2022-09-11T20:26:54.861Z,66.20
2022-09-11T20:29:23.007Z,66.13
2022-09-11T20:31:51.277Z,66.37
2022-09-11T20:34:22.131Z,66.49
2022-09-11T20:36:50.255Z,66.60
2022-09-11T20:39:20.129Z,66.60
2022-09-11T20:41:48.324Z,66.73
2022-09-11T20:44:17.148Z,66.73
2022-09-11T20:46:47.582Z,66.78
2022-09-11T20:49:16.228Z,66.55
2022-09-11T20:51:44.424Z,66.50
2022-09-11T20:54:12.630Z,66.60
2022-09-11T20:56:40.791Z,66.61
2022-09-11T20:59:08.927Z,66.73
2022-09-11T21:01:37.205Z,66.58
2022-09-11T21:04:05.615Z,66.84
2022-09-11T21:06:36.011Z,66.81
2022-09-11T21:09:11.375Z,66.69
2022-09-11T21:11:42.613Z,66.85
2022-09-11T21:14:15.507Z,66.99
2022-09-11T21:16:43.767Z,67.20
2022-09-11T21:19:11.903Z,67.21
2022-09-11T21:21:42.968Z,67.33
2022-09-11T21:24:13.618Z,67.25
2022-09-11T21:26:42.498Z,67.38
2022-09-11T21:29:13.945Z,67.31
2022-09-11T21:31:44.509Z,67.59
2022-09-11T21:34:12.674Z,67.76
2022-09-11T21:36:41.166Z,67.77
2022-09-11T21:39:09.431Z,67.85
2022-09-11T21:41:37.614Z,67.94
2022-09-11T21:44:05.759Z,68.14
2022-09-11T21:46:34.682Z,68.42
2022-09-11T21:49:02.809Z,68.51
2022-09-11T21:51:30.978Z,68.65
2022-09-11T21:54:01.687Z,68.98
2022-09-11T21:56:33.641Z,69.09
2022-09-11T21:59:02.479Z,69.42
2022-09-11T22:01:32.064Z,69.31
2022-09-11T22:04:01.370Z,69.52
2022-09-11T22:06:30.332Z,69.77
2022-09-11T22:08:59.731Z,69.99
2022-09-11T22:11:28.008Z,69.83
2022-09-11T22:13:56.128Z,70.12
2022-09-11T22:16:24.343Z,70.03
2022-09-11T22:18:54.513Z,70.17
2022-09-11T22:21:24.432Z,70.26
2022-09-11T22:23:52.725Z,70.24
2022-09-11T22:26:24.026Z,70.44
2022-09-11T22:28:52.992Z,70.54
2022-09-11T22:31:25.042Z,70.67
2022-09-11T22:33:55.171Z,70.71
2022-09-11T22:36:27.286Z,70.83
2022-09-11T22:38:56.775Z,71.04
2022-09-11T22:41:26.847Z,71.06
2022-09-11T22:43:54.988Z,71.23
2022-09-11T22:46:26.906Z,71.66
2022-09-11T22:48:56.232Z,71.64
2022-09-11T22:51:24.442Z,71.82
2022-09-11T22:53:52.653Z,71.87
2022-09-11T22:56:22.064Z,72.01
2022-09-11T22:58:50.192Z,72.33
2022-09-11T23:01:22.269Z,72.63
2022-09-11T23:03:53.282Z,72.62
2022-09-11T23:06:40.571Z,72.93
2022-09-11T23:09:13.552Z,72.77
2022-09-11T23:11:41.512Z,73.07
2022-09-11T23:14:14.240Z,72.80
2022-09-11T23:16:44.012Z,73.15
2022-09-11T23:19:14.982Z,73.34
2022-09-11T23:21:43.507Z,73.26
2022-09-11T23:24:14.515Z,73.57
2022-09-11T23:26:44.069Z,73.49
2022-09-11T23:29:12.699Z,73.58
2022-09-11T23:31:41.652Z,73.73
2022-09-11T23:34:16.364Z,73.60
2022-09-11T23:36:45.393Z,73.83
2022-09-11T23:39:14.413Z,73.84
2022-09-11T23:41:42.561Z,74.10
2022-09-11T23:44:10.748Z,73.99
2022-09-11T23:46:38.848Z,74.19
2022-09-11T23:49:07.427Z,74.41
2022-09-11T23:51:35.624Z,74.67
2022-09-11T23:54:04.485Z,74.71
2022-09-11T23:56:32.698Z,74.83
2022-09-11T23:59:00.840Z,74.84
